sensor_id;sensor_type;location;lat;lon;timestamp;P1;P2;P0
80396;PMS5003;69721;55.894;-3.052;2023-08-01T00:00:12;0;0;
80396;PMS5003;69721;55.894;-3.052;2023-08-01T00:07:28;0;0;
80396;PMS5003;69721;55.894;-3.052;2023-08-01T00:09:53;0;0;
80396;PMS5003;69721;55.894;-3.052;2023-08-01T00:12:19;0;0;
80396;PMS5003;69721;55.894;-3.052;2023-08-01T00:14:45;0;0;
80396;PMS5003;69721;55.894;-3.052;2023-08-01T00:17:10;0;0;
80396;PMS5003;69721;55.894;-3.052;2023-08-01T00:19:36;0;0;
80396;PMS5003;69721;55.894;-3.052;2023-08-01T00:22:01;0;0;
80396;PMS5003;69721;55.894;-3.052;2023-08-01T00:24:26;0;0;
80396;PMS5003;69721;55.894;-3.052;2023-08-01T00:26:52;0;0;
80396;PMS5003;69721;55.894;-3.052;2023-08-01T00:29:17;0;0;
80396;PMS5003;69721;55.894;-3.052;2023-08-01T00:31:42;0;0;
80396;PMS5003;69721;55.894;-3.052;2023-08-01T00:34:08;0;0;
80396;PMS5003;69721;55.894;-3.052;2023-08-01T00:36:33;0;0;
80396;PMS5003;69721;55.894;-3.052;2023-08-01T00:38:58;0;0;
80396;PMS5003;69721;55.894;-3.052;2023-08-01T00:41:24;3;0;
80396;PMS5003;69721;55.894;-3.052;2023-08-01T00:43:49;0;0;
80396;PMS5003;69721;55.894;-3.052;2023-08-01T00:46:14;1;1;
80396;PMS5003;69721;55.894;-3.052;2023-08-01T00:48:40;0;0;
80396;PMS5003;69721;55.894;-3.052;2023-08-01T00:51:06;0;0;
80396;PMS5003;69721;55.894;-3.052;2023-08-01T00:53:31;2;0;
80396;PMS5003;69721;55.894;-3.052;2023-08-01T00:55:56;0;0;
80396;PMS5003;69721;55.894;-3.052;2023-08-01T00:58:21;0;0;
80396;PMS5003;69721;55.894;-3.052;2023-08-01T01:00:46;0;0;
80396;PMS5003;69721;55.894;-3.052;2023-08-01T01:03:12;1;0;
80396;PMS5003;69721;55.894;-3.052;2023-08-01T01:05:38;1;1;
80396;PMS5003;69721;55.894;-3.052;2023-08-01T01:08:03;0;0;
80396;PMS5003;69721;55.894;-3.052;2023-08-01T01:10:28;0;0;
80396;PMS5003;69721;55.894;-3.052;2023-08-01T01:12:53;0;0;
80396;PMS5003;69721;55.894;-3.052;2023-08-01T01:17:44;0;0;
80396;PMS5003;69721;55.894;-3.052;2023-08-01T01:20:10;0;0;
80396;PMS5003;69721;55.894;-3.052;2023-08-01T01:22:35;0;0;
80396;PMS5003;69721;55.894;-3.052;2023-08-01T01:25:00;0;0;
80396;PMS5003;69721;55.894;-3.052;2023-08-01T01:27:25;1;1;
80396;PMS5003;69721;55.894;-3.052;2023-08-01T01:29:51;0;0;
80396;PMS5003;69721;55.894;-3.052;2023-08-01T01:32:16;1;1;
80396;PMS5003;69721;55.894;-3.052;2023-08-01T01:34:41;0;0;
80396;PMS5003;69721;55.894;-3.052;2023-08-01T01:37:12;0;0;
80396;PMS5003;69721;55.894;-3.052;2023-08-01T01:39:38;0;0;
80396;PMS5003;69721;55.894;-3.052;2023-08-01T01:42:03;0;0;
80396;PMS5003;69721;55.894;-3.052;2023-08-01T01:44:28;0;0;
80396;PMS5003;69721;55.894;-3.052;2023-08-01T01:46:54;1;1;
80396;PMS5003;69721;55.894;-3.052;2023-08-01T01:49:19;0;0;
80396;PMS5003;69721;55.894;-3.052;2023-08-01T01:51:44;1;1;
80396;PMS5003;69721;55.894;-3.052;2023-08-01T01:54:10;1;1;
80396;PMS5003;69721;55.894;-3.052;2023-08-01T01:56:35;2;2;
80396;PMS5003;69721;55.894;-3.052;2023-08-01T01:59:01;1;1;
80396;PMS5003;69721;55.894;-3.052;2023-08-01T02:01:26;1;1;
80396;PMS5003;69721;55.894;-3.052;2023-08-01T02:03:51;1;1;
80396;PMS5003;69721;55.894;-3.052;2023-08-01T02:06:17;1;1;
80396;PMS5003;69721;55.894;-3.052;2023-08-01T02:08:42;0;0;
80396;PMS5003;69721;55.894;-3.052;2023-08-01T02:11:07;1;1;
80396;PMS5003;69721;55.894;-3.052;2023-08-01T02:13:33;2;1;
80396;PMS5003;69721;55.894;-3.052;2023-08-01T02:15:58;1;1;
80396;PMS5003;69721;55.894;-3.052;2023-08-01T02:18:23;1;1;
80396;PMS5003;69721;55.894;-3.052;2023-08-01T02:20:49;1;1;
80396;PMS5003;69721;55.894;-3.052;2023-08-01T02:28:05;1;1;
80396;PMS5003;69721;55.894;-3.052;2023-08-01T02:30:30;1;1;
80396;PMS5003;69721;55.894;-3.052;2023-08-01T02:32:56;4;4;
80396;PMS5003;69721;55.894;-3.052;2023-08-01T02:37:47;2;2;
80396;PMS5003;69721;55.894;-3.052;2023-08-01T02:40:12;4;2;
80396;PMS5003;69721;55.894;-3.052;2023-08-01T02:42:37;4;3;
80396;PMS5003;69721;55.894;-3.052;2023-08-01T02:45:03;3;3;
80396;PMS5003;69721;55.894;-3.052;2023-08-01T02:47:28;3;3;
80396;PMS5003;69721;55.894;-3.052;2023-08-01T02:49:54;4;4;
80396;PMS5003;69721;55.894;-3.052;2023-08-01T02:52:19;6;6;
80396;PMS5003;69721;55.894;-3.052;2023-08-01T02:54:44;4;3;
80396;PMS5003;69721;55.894;-3.052;2023-08-01T02:57:10;3;3;
80396;PMS5003;69721;55.894;-3.052;2023-08-01T02:59:35;5;5;
80396;PMS5003;69721;55.894;-3.052;2023-08-01T03:02:01;7;4;
80396;PMS5003;69721;55.894;-3.052;2023-08-01T03:04:26;5;5;
80396;PMS5003;69721;55.894;-3.052;2023-08-01T03:06:51;4;4;
80396;PMS5003;69721;55.894;-3.052;2023-08-01T03:09:17;4;4;
80396;PMS5003;69721;55.894;-3.052;2023-08-01T03:11:42;6;6;
80396;PMS5003;69721;55.894;-3.052;2023-08-01T03:14:07;4;4;
80396;PMS5003;69721;55.894;-3.052;2023-08-01T03:16:33;6;6;
80396;PMS5003;69721;55.894;-3.052;2023-08-01T03:18:58;5;5;
80396;PMS5003;69721;55.894;-3.052;2023-08-01T03:21:24;4;4;
80396;PMS5003;69721;55.894;-3.052;2023-08-01T03:23:49;6;6;
80396;PMS5003;69721;55.894;-3.052;2023-08-01T03:26:14;6;4;
80396;PMS5003;69721;55.894;-3.052;2023-08-01T03:28:40;5;5;
80396;PMS5003;69721;55.894;-3.052;2023-08-01T03:31:05;5;5;
80396;PMS5003;69721;55.894;-3.052;2023-08-01T03:33:32;5;5;
80396;PMS5003;69721;55.894;-3.052;2023-08-01T03:35:56;6;6;
80396;PMS5003;69721;55.894;-3.052;2023-08-01T03:38:21;4;3;
80396;PMS5003;69721;55.894;-3.052;2023-08-01T03:40:47;5;4;
80396;PMS5003;69721;55.894;-3.052;2023-08-01T03:43:12;6;3;
80396;PMS5003;69721;55.894;-3.052;2023-08-01T03:48:03;5;4;
80396;PMS5003;69721;55.894;-3.052;2023-08-01T03:50:28;3;3;
80396;PMS5003;69721;55.894;-3.052;2023-08-01T03:52:54;2;2;
80396;PMS5003;69721;55.894;-3.052;2023-08-01T03:55:19;3;3;
80396;PMS5003;69721;55.894;-3.052;2023-08-01T03:57:44;3;3;
80396;PMS5003;69721;55.894;-3.052;2023-08-01T04:00:10;3;3;
80396;PMS5003;69721;55.894;-3.052;2023-08-01T04:02:35;5;3;
80396;PMS5003;69721;55.894;-3.052;2023-08-01T04:05:01;2;2;
80396;PMS5003;69721;55.894;-3.052;2023-08-01T04:07:26;3;2;
80396;PMS5003;69721;55.894;-3.052;2023-08-01T04:09:51;3;3;
80396;PMS5003;69721;55.894;-3.052;2023-08-01T04:12:17;3;2;
80396;PMS5003;69721;55.894;-3.052;2023-08-01T04:14:43;1;1;
80396;PMS5003;69721;55.894;-3.052;2023-08-01T04:17:08;1;1;
80396;PMS5003;69721;55.894;-3.052;2023-08-01T04:19:34;1;1;
80396;PMS5003;69721;55.894;-3.052;2023-08-01T04:21:59;1;1;
80396;PMS5003;69721;55.894;-3.052;2023-08-01T04:24:24;0;0;
80396;PMS5003;69721;55.894;-3.052;2023-08-01T04:26:50;1;1;
80396;PMS5003;69721;55.894;-3.052;2023-08-01T04:29:15;0;0;
80396;PMS5003;69721;55.894;-3.052;2023-08-01T04:31:40;0;0;
80396;PMS5003;69721;55.894;-3.052;2023-08-01T04:34:06;1;1;
80396;PMS5003;69721;55.894;-3.052;2023-08-01T04:36:31;0;0;
80396;PMS5003;69721;55.894;-3.052;2023-08-01T04:38:56;0;0;
80396;PMS5003;69721;55.894;-3.052;2023-08-01T04:41:22;0;0;
80396;PMS5003;69721;55.894;-3.052;2023-08-01T04:43:47;0;0;
80396;PMS5003;69721;55.894;-3.052;2023-08-01T04:46:12;1;0;
80396;PMS5003;69721;55.894;-3.052;2023-08-01T04:48:38;0;0;
80396;PMS5003;69721;55.894;-3.052;2023-08-01T04:51:03;0;0;
80396;PMS5003;69721;55.894;-3.052;2023-08-01T04:53:28;1;1;
80396;PMS5003;69721;55.894;-3.052;2023-08-01T04:58:19;2;2;
80396;PMS5003;69721;55.894;-3.052;2023-08-01T05:00:45;4;2;
80396;PMS5003;69721;55.894;-3.052;2023-08-01T05:03:10;2;2;
80396;PMS5003;69721;55.894;-3.052;2023-08-01T05:05:35;0;0;
80396;PMS5003;69721;55.894;-3.052;2023-08-01T05:08:01;2;2;
80396;PMS5003;69721;55.894;-3.052;2023-08-01T05:10:26;2;2;
80396;PMS5003;69721;55.894;-3.052;2023-08-01T05:12:51;4;3;
80396;PMS5003;69721;55.894;-3.052;2023-08-01T05:15:18;1;1;
80396;PMS5003;69721;55.894;-3.052;2023-08-01T05:17:43;1;1;
80396;PMS5003;69721;55.894;-3.052;2023-08-01T05:20:09;2;2;
80396;PMS5003;69721;55.894;-3.052;2023-08-01T05:22:34;6;2;
80396;PMS5003;69721;55.894;-3.052;2023-08-01T05:24:59;3;3;
80396;PMS5003;69721;55.894;-3.052;2023-08-01T05:27:24;2;1;
80396;PMS5003;69721;55.894;-3.052;2023-08-01T05:29:50;0;0;
80396;PMS5003;69721;55.894;-3.052;2023-08-01T05:32:15;4;3;
80396;PMS5003;69721;55.894;-3.052;2023-08-01T05:34:41;4;1;
80396;PMS5003;69721;55.894;-3.052;2023-08-01T05:37:06;2;2;
80396;PMS5003;69721;55.894;-3.052;2023-08-01T05:39:31;3;3;
80396;PMS5003;69721;55.894;-3.052;2023-08-01T05:41:57;4;2;
80396;PMS5003;69721;55.894;-3.052;2023-08-01T05:44:22;3;3;
80396;PMS5003;69721;55.894;-3.052;2023-08-01T05:46:47;3;3;
80396;PMS5003;69721;55.894;-3.052;2023-08-01T05:49:13;1;1;
80396;PMS5003;69721;55.894;-3.052;2023-08-01T05:51:38;3;3;
80396;PMS5003;69721;55.894;-3.052;2023-08-01T05:54:04;3;3;
80396;PMS5003;69721;55.894;-3.052;2023-08-01T05:56:29;2;2;
80396;PMS5003;69721;55.894;-3.052;2023-08-01T05:58:54;3;3;
80396;PMS5003;69721;55.894;-3.052;2023-08-01T06:01:20;3;3;
80396;PMS5003;69721;55.894;-3.052;2023-08-01T06:03:45;1;1;
80396;PMS5003;69721;55.894;-3.052;2023-08-01T06:08:36;5;4;
80396;PMS5003;69721;55.894;-3.052;2023-08-01T06:11:01;4;3;
80396;PMS5003;69721;55.894;-3.052;2023-08-01T06:13:26;6;6;
80396;PMS5003;69721;55.894;-3.052;2023-08-01T06:15:51;4;4;
80396;PMS5003;69721;55.894;-3.052;2023-08-01T06:18:17;7;5;
80396;PMS5003;69721;55.894;-3.052;2023-08-01T06:20:42;4;3;
80396;PMS5003;69721;55.894;-3.052;2023-08-01T06:23:08;4;3;
80396;PMS5003;69721;55.894;-3.052;2023-08-01T06:25:33;4;4;
80396;PMS5003;69721;55.894;-3.052;2023-08-01T06:27:59;8;4;
80396;PMS5003;69721;55.894;-3.052;2023-08-01T06:30:25;6;5;
80396;PMS5003;69721;55.894;-3.052;2023-08-01T06:32:50;4;4;
80396;PMS5003;69721;55.894;-3.052;2023-08-01T06:35:15;5;4;
80396;PMS5003;69721;55.894;-3.052;2023-08-01T06:37:41;5;3;
80396;PMS5003;69721;55.894;-3.052;2023-08-01T06:40:07;3;3;
80396;PMS5003;69721;55.894;-3.052;2023-08-01T06:42:32;3;3;
80396;PMS5003;69721;55.894;-3.052;2023-08-01T06:44:57;6;4;
80396;PMS5003;69721;55.894;-3.052;2023-08-01T06:47:22;4;4;
80396;PMS5003;69721;55.894;-3.052;2023-08-01T06:49:48;2;2;
80396;PMS5003;69721;55.894;-3.052;2023-08-01T06:52:13;2;2;
80396;PMS5003;69721;55.894;-3.052;2023-08-01T06:54:38;3;3;
80396;PMS5003;69721;55.894;-3.052;2023-08-01T06:57:04;4;3;
80396;PMS5003;69721;55.894;-3.052;2023-08-01T06:59:29;4;4;
80396;PMS5003;69721;55.894;-3.052;2023-08-01T07:01:55;3;3;
80396;PMS5003;69721;55.894;-3.052;2023-08-01T07:04:20;2;2;
80396;PMS5003;69721;55.894;-3.052;2023-08-01T07:06:45;3;3;
80396;PMS5003;69721;55.894;-3.052;2023-08-01T07:09:11;4;4;
80396;PMS5003;69721;55.894;-3.052;2023-08-01T07:11:36;4;4;
80396;PMS5003;69721;55.894;-3.052;2023-08-01T07:14:02;3;3;
80396;PMS5003;69721;55.894;-3.052;2023-08-01T07:18:52;3;3;
80396;PMS5003;69721;55.894;-3.052;2023-08-01T07:21:18;3;3;
80396;PMS5003;69721;55.894;-3.052;2023-08-01T07:23:43;2;2;
80396;PMS5003;69721;55.894;-3.052;2023-08-01T07:26:08;4;2;
80396;PMS5003;69721;55.894;-3.052;2023-08-01T07:28:34;3;3;
80396;PMS5003;69721;55.894;-3.052;2023-08-01T07:30:59;4;3;
80396;PMS5003;69721;55.894;-3.052;2023-08-01T07:33:24;3;3;
80396;PMS5003;69721;55.894;-3.052;2023-08-01T07:35:50;2;2;
80396;PMS5003;69721;55.894;-3.052;2023-08-01T07:38:15;3;3;
80396;PMS5003;69721;55.894;-3.052;2023-08-01T07:40:40;2;2;
80396;PMS5003;69721;55.894;-3.052;2023-08-01T07:43:08;2;2;
80396;PMS5003;69721;55.894;-3.052;2023-08-01T07:45:33;3;3;
80396;PMS5003;69721;55.894;-3.052;2023-08-01T07:47:58;4;4;
80396;PMS5003;69721;55.894;-3.052;2023-08-01T07:50:24;4;4;
80396;PMS5003;69721;55.894;-3.052;2023-08-01T07:52:49;3;3;
80396;PMS5003;69721;55.894;-3.052;2023-08-01T07:55:15;4;4;
80396;PMS5003;69721;55.894;-3.052;2023-08-01T07:57:40;8;5;
80396;PMS5003;69721;55.894;-3.052;2023-08-01T08:00:06;4;4;
80396;PMS5003;69721;55.894;-3.052;2023-08-01T08:02:31;6;5;
80396;PMS5003;69721;55.894;-3.052;2023-08-01T08:04:56;5;3;
80396;PMS5003;69721;55.894;-3.052;2023-08-01T08:07:22;3;3;
80396;PMS5003;69721;55.894;-3.052;2023-08-01T08:09:48;7;3;
80396;PMS5003;69721;55.894;-3.052;2023-08-01T08:12:13;3;3;
80396;PMS5003;69721;55.894;-3.052;2023-08-01T08:14:39;5;4;
80396;PMS5003;69721;55.894;-3.052;2023-08-01T08:17:04;6;3;
80396;PMS5003;69721;55.894;-3.052;2023-08-01T08:19:29;4;3;
80396;PMS5003;69721;55.894;-3.052;2023-08-01T08:21:55;4;4;
80396;PMS5003;69721;55.894;-3.052;2023-08-01T08:24:20;4;2;
80396;PMS5003;69721;55.894;-3.052;2023-08-01T08:26:51;5;5;
80396;PMS5003;69721;55.894;-3.052;2023-08-01T08:29:11;5;5;
80396;PMS5003;69721;55.894;-3.052;2023-08-01T08:31:36;5;5;
80396;PMS5003;69721;55.894;-3.052;2023-08-01T08:34:02;4;4;
80396;PMS5003;69721;55.894;-3.052;2023-08-01T08:36:27;6;4;
80396;PMS5003;69721;55.894;-3.052;2023-08-01T08:38:52;4;3;
80396;PMS5003;69721;55.894;-3.052;2023-08-01T08:41:19;6;4;
80396;PMS5003;69721;55.894;-3.052;2023-08-01T08:43:43;4;4;
80396;PMS5003;69721;55.894;-3.052;2023-08-01T08:46:09;3;3;
80396;PMS5003;69721;55.894;-3.052;2023-08-01T08:48:34;6;5;
80396;PMS5003;69721;55.894;-3.052;2023-08-01T08:51:00;2;2;
80396;PMS5003;69721;55.894;-3.052;2023-08-01T08:53:25;2;2;
80396;PMS5003;69721;55.894;-3.052;2023-08-01T08:55:50;4;4;
80396;PMS5003;69721;55.894;-3.052;2023-08-01T08:58:15;3;2;
80396;PMS5003;69721;55.894;-3.052;2023-08-01T09:00:41;7;4;
80396;PMS5003;69721;55.894;-3.052;2023-08-01T09:03:06;5;3;
80396;PMS5003;69721;55.894;-3.052;2023-08-01T09:05:34;2;2;
80396;PMS5003;69721;55.894;-3.052;2023-08-01T09:07:57;2;2;
80396;PMS5003;69721;55.894;-3.052;2023-08-01T09:10:22;4;1;
80396;PMS5003;69721;55.894;-3.052;2023-08-01T09:12:48;4;3;
80396;PMS5003;69721;55.894;-3.052;2023-08-01T09:15:13;1;1;
80396;PMS5003;69721;55.894;-3.052;2023-08-01T09:20:05;4;4;
80396;PMS5003;69721;55.894;-3.052;2023-08-01T09:22:30;3;3;
80396;PMS5003;69721;55.894;-3.052;2023-08-01T09:24:55;3;3;
80396;PMS5003;69721;55.894;-3.052;2023-08-01T09:27:21;3;3;
80396;PMS5003;69721;55.894;-3.052;2023-08-01T09:29:46;5;3;
80396;PMS5003;69721;55.894;-3.052;2023-08-01T09:32:12;3;3;
80396;PMS5003;69721;55.894;-3.052;2023-08-01T09:34:37;2;2;
80396;PMS5003;69721;55.894;-3.052;2023-08-01T09:39:27;2;2;
80396;PMS5003;69721;55.894;-3.052;2023-08-01T09:41:54;3;3;
80396;PMS5003;69721;55.894;-3.052;2023-08-01T09:44:18;1;1;
80396;PMS5003;69721;55.894;-3.052;2023-08-01T09:46:43;2;2;
80396;PMS5003;69721;55.894;-3.052;2023-08-01T09:49:09;3;3;
80396;PMS5003;69721;55.894;-3.052;2023-08-01T09:51:34;4;4;
80396;PMS5003;69721;55.894;-3.052;2023-08-01T09:53:59;2;1;
80396;PMS5003;69721;55.894;-3.052;2023-08-01T09:56:26;5;3;
80396;PMS5003;69721;55.894;-3.052;2023-08-01T09:58:53;3;3;
80396;PMS5003;69721;55.894;-3.052;2023-08-01T10:01:16;6;6;
80396;PMS5003;69721;55.894;-3.052;2023-08-01T10:03:43;2;2;
80396;PMS5003;69721;55.894;-3.052;2023-08-01T10:06:06;3;3;
80396;PMS5003;69721;55.894;-3.052;2023-08-01T10:08:32;2;2;
80396;PMS5003;69721;55.894;-3.052;2023-08-01T10:10:57;6;3;
80396;PMS5003;69721;55.894;-3.052;2023-08-01T10:13:23;4;4;
80396;PMS5003;69721;55.894;-3.052;2023-08-01T10:15:47;5;3;
80396;PMS5003;69721;55.894;-3.052;2023-08-01T10:18:13;4;3;
80396;PMS5003;69721;55.894;-3.052;2023-08-01T10:20:38;4;4;
80396;PMS5003;69721;55.894;-3.052;2023-08-01T10:23:03;4;4;
80396;PMS5003;69721;55.894;-3.052;2023-08-01T10:25:29;5;4;
80396;PMS5003;69721;55.894;-3.052;2023-08-01T10:27:57;7;3;
80396;PMS5003;69721;55.894;-3.052;2023-08-01T10:30:25;7;7;
80396;PMS5003;69721;55.894;-3.052;2023-08-01T10:32:44;7;6;
80396;PMS5003;69721;55.894;-3.052;2023-08-01T10:35:10;8;4;
80396;PMS5003;69721;55.894;-3.052;2023-08-01T10:37:39;11;8;
80396;PMS5003;69721;55.894;-3.052;2023-08-01T10:40:00;11;7;
80396;PMS5003;69721;55.894;-3.052;2023-08-01T10:42:26;7;6;
80396;PMS5003;69721;55.894;-3.052;2023-08-01T10:44:51;4;4;
80396;PMS5003;69721;55.894;-3.052;2023-08-01T10:49:42;9;7;
80396;PMS5003;69721;55.894;-3.052;2023-08-01T10:54:32;5;5;
80396;PMS5003;69721;55.894;-3.052;2023-08-01T10:56:58;7;4;
80396;PMS5003;69721;55.894;-3.052;2023-08-01T10:59:22;6;5;
80396;PMS5003;69721;55.894;-3.052;2023-08-01T11:01:48;7;4;
80396;PMS5003;69721;55.894;-3.052;2023-08-01T11:04:14;9;4;
80396;PMS5003;69721;55.894;-3.052;2023-08-01T11:06:42;5;5;
80396;PMS5003;69721;55.894;-3.052;2023-08-01T11:11:31;9;5;
80396;PMS5003;69721;55.894;-3.052;2023-08-01T11:13:57;3;3;
80396;PMS5003;69721;55.894;-3.052;2023-08-01T11:16:22;6;4;
80396;PMS5003;69721;55.894;-3.052;2023-08-01T11:18:48;6;3;
80396;PMS5003;69721;55.894;-3.052;2023-08-01T11:21:23;8;4;
80396;PMS5003;69721;55.894;-3.052;2023-08-01T11:23:38;3;3;
80396;PMS5003;69721;55.894;-3.052;2023-08-01T11:26:06;3;3;
80396;PMS5003;69721;55.894;-3.052;2023-08-01T11:28:29;5;5;
80396;PMS5003;69721;55.894;-3.052;2023-08-01T11:30:55;10;9;
80396;PMS5003;69721;55.894;-3.052;2023-08-01T11:33:22;9;6;
80396;PMS5003;69721;55.894;-3.052;2023-08-01T11:35:49;4;4;
80396;PMS5003;69721;55.894;-3.052;2023-08-01T11:38:12;4;4;
80396;PMS5003;69721;55.894;-3.052;2023-08-01T11:40:37;6;4;
80396;PMS5003;69721;55.894;-3.052;2023-08-01T11:43:02;7;4;
80396;PMS5003;69721;55.894;-3.052;2023-08-01T11:45:28;5;4;
80396;PMS5003;69721;55.894;-3.052;2023-08-01T11:47:53;2;2;
80396;PMS5003;69721;55.894;-3.052;2023-08-01T11:50:22;4;4;
80396;PMS5003;69721;55.894;-3.052;2023-08-01T11:52:46;7;5;
80396;PMS5003;69721;55.894;-3.052;2023-08-01T12:00:01;3;3;
80396;PMS5003;69721;55.894;-3.052;2023-08-01T12:02:26;4;3;
80396;PMS5003;69721;55.894;-3.052;2023-08-01T12:04:52;3;3;
80396;PMS5003;69721;55.894;-3.052;2023-08-01T12:09:42;4;4;
80396;PMS5003;69721;55.894;-3.052;2023-08-01T12:12:08;6;5;
80396;PMS5003;69721;55.894;-3.052;2023-08-01T12:14:33;5;3;
80396;PMS5003;69721;55.894;-3.052;2023-08-01T12:16:58;5;5;
80396;PMS5003;69721;55.894;-3.052;2023-08-01T12:19:23;4;4;
80396;PMS5003;69721;55.894;-3.052;2023-08-01T12:21:49;7;2;
80396;PMS5003;69721;55.894;-3.052;2023-08-01T12:24:14;3;3;
80396;PMS5003;69721;55.894;-3.052;2023-08-01T12:26:39;6;4;
80396;PMS5003;69721;55.894;-3.052;2023-08-01T12:29:04;5;2;
80396;PMS5003;69721;55.894;-3.052;2023-08-01T12:31:30;5;5;
80396;PMS5003;69721;55.894;-3.052;2023-08-01T12:33:55;6;5;
80396;PMS5003;69721;55.894;-3.052;2023-08-01T12:36:20;3;3;
80396;PMS5003;69721;55.894;-3.052;2023-08-01T12:38:46;9;3;
80396;PMS5003;69721;55.894;-3.052;2023-08-01T12:41:11;4;2;
80396;PMS5003;69721;55.894;-3.052;2023-08-01T12:43:36;7;4;
80396;PMS5003;69721;55.894;-3.052;2023-08-01T12:46:02;5;5;
80396;PMS5003;69721;55.894;-3.052;2023-08-01T12:48:27;4;4;
80396;PMS5003;69721;55.894;-3.052;2023-08-01T12:50:52;5;5;
80396;PMS5003;69721;55.894;-3.052;2023-08-01T12:53:18;3;2;
80396;PMS5003;69721;55.894;-3.052;2023-08-01T12:55:43;4;4;
80396;PMS5003;69721;55.894;-3.052;2023-08-01T12:58:08;6;6;
80396;PMS5003;69721;55.894;-3.052;2023-08-01T13:00:34;4;4;
80396;PMS5003;69721;55.894;-3.052;2023-08-01T13:02:59;6;6;
80396;PMS5003;69721;55.894;-3.052;2023-08-01T13:05:25;5;4;
80396;PMS5003;69721;55.894;-3.052;2023-08-01T13:07:50;7;4;
80396;PMS5003;69721;55.894;-3.052;2023-08-01T13:10:15;4;3;
80396;PMS5003;69721;55.894;-3.052;2023-08-01T13:12:40;5;5;
80396;PMS5003;69721;55.894;-3.052;2023-08-01T13:15:06;10;9;
80396;PMS5003;69721;55.894;-3.052;2023-08-01T13:19:56;4;4;
80396;PMS5003;69721;55.894;-3.052;2023-08-01T13:22:21;4;3;
80396;PMS5003;69721;55.894;-3.052;2023-08-01T13:24:47;6;3;
80396;PMS5003;69721;55.894;-3.052;2023-08-01T13:27:12;5;5;
80396;PMS5003;69721;55.894;-3.052;2023-08-01T13:29:37;9;6;
80396;PMS5003;69721;55.894;-3.052;2023-08-01T13:32:03;3;3;
80396;PMS5003;69721;55.894;-3.052;2023-08-01T13:34:28;4;4;
80396;PMS5003;69721;55.894;-3.052;2023-08-01T13:36:54;9;5;
80396;PMS5003;69721;55.894;-3.052;2023-08-01T13:39:19;5;3;
80396;PMS5003;69721;55.894;-3.052;2023-08-01T13:41:44;4;2;
80396;PMS5003;69721;55.894;-3.052;2023-08-01T13:44:10;6;4;
80396;PMS5003;69721;55.894;-3.052;2023-08-01T13:46:35;5;4;
80396;PMS5003;69721;55.894;-3.052;2023-08-01T13:49:00;5;5;
80396;PMS5003;69721;55.894;-3.052;2023-08-01T13:51:26;4;2;
80396;PMS5003;69721;55.894;-3.052;2023-08-01T13:53:53;2;2;
80396;PMS5003;69721;55.894;-3.052;2023-08-01T13:56:18;3;3;
80396;PMS5003;69721;55.894;-3.052;2023-08-01T13:58:43;3;3;
80396;PMS5003;69721;55.894;-3.052;2023-08-01T14:01:09;4;2;
80396;PMS5003;69721;55.894;-3.052;2023-08-01T14:03:34;5;2;
80396;PMS5003;69721;55.894;-3.052;2023-08-01T14:06:04;5;3;
80396;PMS5003;69721;55.894;-3.052;2023-08-01T14:08:26;5;4;
80396;PMS5003;69721;55.894;-3.052;2023-08-01T14:10:51;5;4;
80396;PMS5003;69721;55.894;-3.052;2023-08-01T14:13:16;6;3;
80396;PMS5003;69721;55.894;-3.052;2023-08-01T14:15:42;10;8;
80396;PMS5003;69721;55.894;-3.052;2023-08-01T14:18:07;4;4;
80396;PMS5003;69721;55.894;-3.052;2023-08-01T14:20:33;5;5;
80396;PMS5003;69721;55.894;-3.052;2023-08-01T14:22:58;5;3;
80396;PMS5003;69721;55.894;-3.052;2023-08-01T14:25:24;4;4;
80396;PMS5003;69721;55.894;-3.052;2023-08-01T14:30:14;3;1;
80396;PMS5003;69721;55.894;-3.052;2023-08-01T14:32:39;3;3;
80396;PMS5003;69721;55.894;-3.052;2023-08-01T14:35:05;6;4;
80396;PMS5003;69721;55.894;-3.052;2023-08-01T14:37:30;6;4;
80396;PMS5003;69721;55.894;-3.052;2023-08-01T14:39:56;7;6;
80396;PMS5003;69721;55.894;-3.052;2023-08-01T14:42:21;5;3;
80396;PMS5003;69721;55.894;-3.052;2023-08-01T14:44:51;7;5;
80396;PMS5003;69721;55.894;-3.052;2023-08-01T14:47:12;4;4;
80396;PMS5003;69721;55.894;-3.052;2023-08-01T14:49:37;5;4;
80396;PMS5003;69721;55.894;-3.052;2023-08-01T14:52:04;3;3;
80396;PMS5003;69721;55.894;-3.052;2023-08-01T14:54:29;3;3;
80396;PMS5003;69721;55.894;-3.052;2023-08-01T14:56:54;5;3;
80396;PMS5003;69721;55.894;-3.052;2023-08-01T14:59:19;7;3;
80396;PMS5003;69721;55.894;-3.052;2023-08-01T15:01:45;6;4;
80396;PMS5003;69721;55.894;-3.052;2023-08-01T15:04:10;4;4;
80396;PMS5003;69721;55.894;-3.052;2023-08-01T15:06:35;4;3;
80396;PMS5003;69721;55.894;-3.052;2023-08-01T15:09:01;4;4;
80396;PMS5003;69721;55.894;-3.052;2023-08-01T15:11:26;9;4;
80396;PMS5003;69721;55.894;-3.052;2023-08-01T15:13:51;10;6;
80396;PMS5003;69721;55.894;-3.052;2023-08-01T15:16:16;3;3;
80396;PMS5003;69721;55.894;-3.052;2023-08-01T15:18:42;4;4;
80396;PMS5003;69721;55.894;-3.052;2023-08-01T15:21:07;3;3;
80396;PMS5003;69721;55.894;-3.052;2023-08-01T15:23:33;4;3;
80396;PMS5003;69721;55.894;-3.052;2023-08-01T15:25:59;7;4;
80396;PMS5003;69721;55.894;-3.052;2023-08-01T15:28:25;3;3;
80396;PMS5003;69721;55.894;-3.052;2023-08-01T15:30:49;5;4;
80396;PMS5003;69721;55.894;-3.052;2023-08-01T15:33:15;4;4;
80396;PMS5003;69721;55.894;-3.052;2023-08-01T15:35:40;9;5;
80396;PMS5003;69721;55.894;-3.052;2023-08-01T15:40:31;6;4;
80396;PMS5003;69721;55.894;-3.052;2023-08-01T15:42:56;6;3;
80396;PMS5003;69721;55.894;-3.052;2023-08-01T15:45:21;3;3;
80396;PMS5003;69721;55.894;-3.052;2023-08-01T15:47:47;3;3;
80396;PMS5003;69721;55.894;-3.052;2023-08-01T15:50:12;4;4;
80396;PMS5003;69721;55.894;-3.052;2023-08-01T15:52:37;3;3;
80396;PMS5003;69721;55.894;-3.052;2023-08-01T15:55:03;3;3;
80396;PMS5003;69721;55.894;-3.052;2023-08-01T15:57:28;2;1;
80396;PMS5003;69721;55.894;-3.052;2023-08-01T15:59:54;4;4;
80396;PMS5003;69721;55.894;-3.052;2023-08-01T16:02:19;7;4;
80396;PMS5003;69721;55.894;-3.052;2023-08-01T16:04:44;2;1;
80396;PMS5003;69721;55.894;-3.052;2023-08-01T16:07:10;5;3;
80396;PMS5003;69721;55.894;-3.052;2023-08-01T16:09:35;5;4;
80396;PMS5003;69721;55.894;-3.052;2023-08-01T16:12:00;1;1;
80396;PMS5003;69721;55.894;-3.052;2023-08-01T16:14:26;2;2;
80396;PMS5003;69721;55.894;-3.052;2023-08-01T16:16:51;7;2;
80396;PMS5003;69721;55.894;-3.052;2023-08-01T16:19:16;4;4;
80396;PMS5003;69721;55.894;-3.052;2023-08-01T16:21:42;6;5;
80396;PMS5003;69721;55.894;-3.052;2023-08-01T16:24:07;4;2;
80396;PMS5003;69721;55.894;-3.052;2023-08-01T16:26:33;3;3;
80396;PMS5003;69721;55.894;-3.052;2023-08-01T16:28:59;4;2;
80396;PMS5003;69721;55.894;-3.052;2023-08-01T16:31:24;2;2;
80396;PMS5003;69721;55.894;-3.052;2023-08-01T16:33:49;3;3;
80396;PMS5003;69721;55.894;-3.052;2023-08-01T16:36:16;3;3;
80396;PMS5003;69721;55.894;-3.052;2023-08-01T16:38:41;5;5;
80396;PMS5003;69721;55.894;-3.052;2023-08-01T16:41:06;5;5;
80396;PMS5003;69721;55.894;-3.052;2023-08-01T16:43:32;4;4;
80396;PMS5003;69721;55.894;-3.052;2023-08-01T16:45:57;5;5;
80396;PMS5003;69721;55.894;-3.052;2023-08-01T16:50:48;4;3;
80396;PMS5003;69721;55.894;-3.052;2023-08-01T16:53:13;3;3;
80396;PMS5003;69721;55.894;-3.052;2023-08-01T16:55:38;7;4;
80396;PMS5003;69721;55.894;-3.052;2023-08-01T16:58:04;5;3;
80396;PMS5003;69721;55.894;-3.052;2023-08-01T17:00:29;5;5;
80396;PMS5003;69721;55.894;-3.052;2023-08-01T17:02:54;2;2;
80396;PMS5003;69721;55.894;-3.052;2023-08-01T17:05:19;5;4;
80396;PMS5003;69721;55.894;-3.052;2023-08-01T17:07:45;4;4;
80396;PMS5003;69721;55.894;-3.052;2023-08-01T17:10:10;4;3;
80396;PMS5003;69721;55.894;-3.052;2023-08-01T17:12:35;2;2;